createdAt,value
2018-08-27T00:00:31.618Z,0
2018-08-27T00:01:31.867Z,0
2018-08-27T00:02:32.138Z,0
2018-08-27T00:03:31.866Z,0
2018-08-27T00:04:31.601Z,0
2018-08-27T00:05:32.192Z,0
2018-08-27T00:06:31.871Z,0
2018-08-27T00:07:31.856Z,0
2018-08-27T00:08:31.593Z,0
2018-08-27T00:09:32.101Z,0
2018-08-27T00:10:32.406Z,0
2018-08-27T00:11:32.092Z,0
2018-08-27T00:12:31.851Z,0
2018-08-27T00:13:32.091Z,0
2018-08-27T00:14:31.871Z,0
2018-08-27T00:15:31.841Z,0
2018-08-27T00:16:32.097Z,0
2018-08-27T00:17:31.885Z,0
2018-08-27T00:18:32.099Z,0
2018-08-27T00:19:32.371Z,0
2018-08-27T00:20:32.083Z,0
2018-08-27T00:21:32.069Z,0
2018-08-27T00:22:31.559Z,0
2018-08-27T00:23:32.323Z,0
2018-08-27T00:24:31.815Z,0
2018-08-27T00:25:31.652Z,0
2018-08-27T00:26:31.545Z,0
2018-08-27T00:27:32.081Z,0
2018-08-27T00:28:31.789Z,0
2018-08-27T00:29:32.061Z,0
2018-08-27T00:30:32.073Z,0
2018-08-27T00:31:32.309Z,0
2018-08-27T00:32:31.526Z,0
2018-08-27T00:33:31.542Z,0
2018-08-27T00:34:31.796Z,0
2018-08-27T00:35:31.810Z,0
2018-08-27T00:36:32.063Z,0
2018-08-27T00:37:31.786Z,0
2018-08-27T00:38:31.521Z,0
2018-08-27T00:39:32.046Z,0
2018-08-27T00:40:32.053Z,0
2018-08-27T00:41:32.306Z,0
2018-08-27T00:42:32.016Z,0
2018-08-27T00:43:32.023Z,0
2018-08-27T00:44:31.768Z,0
2018-08-27T00:45:32.271Z,0
2018-08-27T00:46:31.764Z,0
2018-08-27T00:47:31.770Z,0
2018-08-27T00:48:31.767Z,0
2018-08-27T00:49:31.774Z,0
2018-08-27T00:50:31.745Z,0
2018-08-27T00:51:31.495Z,0
2018-08-27T00:52:32.041Z,0
2018-08-27T00:53:32.019Z,0
2018-08-27T00:54:31.764Z,0
2018-08-27T00:55:32.055Z,0
2018-08-27T00:56:31.736Z,0
2018-08-27T00:57:31.472Z,0
2018-08-27T00:58:31.732Z,0
2018-08-27T00:59:31.738Z,0
2018-08-27T01:00:32.004Z,0
2018-08-27T01:01:31.737Z,0
2018-08-27T01:02:31.463Z,0
2018-08-27T01:03:32.245Z,0
2018-08-27T01:04:31.992Z,0
2018-08-27T01:05:32.009Z,0
2018-08-27T01:06:31.453Z,0
2018-08-27T01:07:31.729Z,0
2018-08-27T01:08:31.969Z,0
2018-08-27T01:09:31.469Z,0
2018-08-27T01:10:31.486Z,0
2018-08-27T01:11:31.206Z,0
2018-08-27T01:12:31.711Z,0
2018-08-27T01:13:31.974Z,0
2018-08-27T01:14:31.972Z,0
2018-08-27T01:15:31.705Z,0
2018-08-27T01:16:31.442Z,0
2018-08-27T01:17:31.715Z,0
2018-08-27T01:18:32.218Z,0
2018-08-27T01:19:31.428Z,0
2018-08-27T01:20:31.709Z,0
2018-08-27T01:21:31.690Z,0
2018-08-27T01:22:32.116Z,0
2018-08-27T01:23:31.678Z,0
2018-08-27T01:24:31.699Z,0
2018-08-27T01:25:31.939Z,0
2018-08-27T01:26:31.941Z,0
2018-08-27T01:27:31.946Z,0
2018-08-27T01:28:31.948Z,0
2018-08-27T01:29:31.933Z,0
2018-08-27T01:30:31.776Z,0
2018-08-27T01:31:31.932Z,0
2018-08-27T01:32:31.695Z,0
2018-08-27T01:33:32.186Z,0
2018-08-27T01:34:31.678Z,0
2018-08-27T01:35:32.184Z,0
2018-08-27T01:36:32.182Z,0
2018-08-27T01:37:31.947Z,0
2018-08-27T01:38:31.425Z,0
2018-08-27T01:39:32.189Z,0
2018-08-27T01:40:31.900Z,0
2018-08-27T01:41:32.184Z,0
2018-08-27T01:42:31.907Z,0
2018-08-27T01:43:31.655Z,0
2018-08-27T01:44:32.157Z,0
2018-08-27T01:45:31.940Z,0
2018-08-27T01:46:32.187Z,0
2018-08-27T01:47:31.947Z,0
2018-08-27T01:48:31.963Z,0
2018-08-27T01:49:31.901Z,0
2018-08-27T01:50:31.686Z,0
2018-08-27T01:51:31.897Z,0
2018-08-27T01:52:32.152Z,0
2018-08-27T01:53:31.638Z,0
2018-08-27T01:54:31.637Z,0
2018-08-27T01:55:31.895Z,0
2018-08-27T01:56:31.636Z,0
2018-08-27T01:57:31.899Z,0
2018-08-27T01:58:31.910Z,0
2018-08-27T01:59:31.883Z,0
2018-08-27T02:00:31.628Z,0
2018-08-27T02:01:31.368Z,0
2018-08-27T02:02:31.897Z,0
2018-08-27T02:03:32.139Z,0
2018-08-27T02:04:31.868Z,0
2018-08-27T02:05:31.866Z,0
2018-08-27T02:06:31.890Z,0
2018-08-27T02:07:31.353Z,0
2018-08-27T02:08:32.137Z,0
2018-08-27T02:09:31.615Z,0
2018-08-27T02:10:31.844Z,0
2018-08-27T02:11:32.111Z,0
2018-08-27T02:12:31.595Z,0
2018-08-27T02:13:31.592Z,0
2018-08-27T02:14:32.113Z,0
2018-08-27T02:15:32.136Z,0
2018-08-27T02:16:31.595Z,0
2018-08-27T02:17:31.349Z,0
2018-08-27T02:18:31.837Z,0
2018-08-27T02:19:31.328Z,0
2018-08-27T02:20:31.609Z,0
2018-08-27T02:21:31.847Z,0
2018-08-27T02:22:32.097Z,0
2018-08-27T02:23:31.811Z,0
2018-08-27T02:24:31.566Z,0
2018-08-27T02:25:31.618Z,0
2018-08-27T02:26:31.838Z,0
2018-08-27T02:27:31.571Z,0
2018-08-27T02:28:32.086Z,0
2018-08-27T02:29:31.551Z,0
2018-08-27T02:30:31.302Z,0
2018-08-27T02:31:31.297Z,0
2018-08-27T02:32:32.023Z,0
2018-08-27T02:33:32.060Z,0
2018-08-27T02:34:31.811Z,0
2018-08-27T02:35:31.342Z,0
2018-08-27T02:36:32.055Z,0
2018-08-27T02:37:32.048Z,0
2018-08-27T02:38:31.802Z,0
2018-08-27T02:39:31.813Z,0
2018-08-27T02:40:31.800Z,0
2018-08-27T02:41:31.783Z,0
2018-08-27T02:42:31.809Z,0
2018-08-27T02:43:31.783Z,0
2018-08-27T02:44:31.801Z,0
2018-08-27T02:45:31.766Z,0
2018-08-27T02:46:31.550Z,0
2018-08-27T02:47:32.736Z,0
2018-08-27T02:48:31.780Z,0
2018-08-27T02:49:31.787Z,0
2018-08-27T02:50:32.105Z,0
2018-08-27T02:51:31.508Z,0
2018-08-27T02:52:31.257Z,0
2018-08-27T02:53:31.768Z,0
2018-08-27T02:54:31.499Z,0
2018-08-27T02:55:31.508Z,0
2018-08-27T02:56:31.498Z,0
2018-08-27T02:57:31.757Z,0
2018-08-27T02:58:31.241Z,0
2018-08-27T02:59:30.985Z,0
2018-08-27T03:00:31.272Z,0
2018-08-27T03:01:31.764Z,0
2018-08-27T03:02:31.757Z,0
2018-08-27T03:03:31.242Z,0
2018-08-27T03:04:31.485Z,0
2018-08-27T03:05:31.754Z,0
2018-08-27T03:06:31.995Z,0
2018-08-27T03:07:31.475Z,0
2018-08-27T03:08:31.733Z,0
2018-08-27T03:09:31.998Z,0
2018-08-27T03:10:31.527Z,0
2018-08-27T03:11:31.482Z,0
2018-08-27T03:12:31.730Z,0
2018-08-27T03:13:31.220Z,0
2018-08-27T03:14:31.718Z,0
2018-08-27T03:15:31.715Z,0
2018-08-27T03:16:31.718Z,0
2018-08-27T03:17:33.051Z,0
2018-08-27T03:18:31.293Z,0
2018-08-27T03:19:31.462Z,0
2018-08-27T03:20:31.187Z,0
2018-08-27T03:21:31.717Z,0
2018-08-27T03:22:31.215Z,0
2018-08-27T03:23:31.733Z,0
2018-08-27T03:24:31.437Z,0
2018-08-27T03:25:31.723Z,0
2018-08-27T03:26:31.180Z,0
2018-08-27T03:27:31.486Z,0
2018-08-27T03:28:31.472Z,0
2018-08-27T03:29:31.452Z,0
2018-08-27T03:30:31.197Z,0
2018-08-27T03:31:31.735Z,0
2018-08-27T03:32:31.433Z,0
2018-08-27T03:33:31.677Z,0
2018-08-27T03:34:31.928Z,0
2018-08-27T03:35:31.740Z,0
2018-08-27T03:36:31.926Z,0
2018-08-27T03:37:31.410Z,0
2018-08-27T03:38:31.149Z,0
2018-08-27T03:39:31.142Z,0
2018-08-27T03:40:31.964Z,0
2018-08-27T03:41:30.882Z,0
2018-08-27T03:42:31.409Z,0
2018-08-27T03:43:31.409Z,0
2018-08-27T03:44:30.906Z,0
2018-08-27T03:45:31.651Z,0
2018-08-27T03:46:31.911Z,0
2018-08-27T03:47:32.230Z,0
2018-08-27T03:48:31.874Z,0
2018-08-27T03:49:31.645Z,0
2018-08-27T03:50:31.684Z,0
2018-08-27T03:51:31.373Z,0
2018-08-27T03:52:31.655Z,0
2018-08-27T03:53:31.647Z,0
2018-08-27T03:54:31.123Z,0
2018-08-27T03:55:31.419Z,0
2018-08-27T03:56:31.121Z,0
2018-08-27T03:57:31.641Z,0
2018-08-27T03:58:31.626Z,0
2018-08-27T03:59:31.610Z,0
2018-08-27T04:00:31.161Z,0
2018-08-27T04:01:31.363Z,0
2018-08-27T04:02:31.644Z,0
2018-08-27T04:03:31.606Z,0
2018-08-27T04:04:31.099Z,0
2018-08-27T04:05:31.989Z,0
2018-08-27T04:06:31.349Z,0
2018-08-27T04:07:31.102Z,0
2018-08-27T04:08:31.354Z,0
2018-08-27T04:09:31.351Z,0
2018-08-27T04:10:31.867Z,0
2018-08-27T04:11:31.597Z,0
2018-08-27T04:12:31.941Z,0
2018-08-27T04:13:31.355Z,0
2018-08-27T04:14:31.102Z,0
2018-08-27T04:15:31.857Z,0
2018-08-27T04:16:31.326Z,0
2018-08-27T04:17:30.811Z,0
2018-08-27T04:18:31.567Z,0
2018-08-27T04:19:31.343Z,0
2018-08-27T04:20:31.395Z,0
2018-08-27T04:21:31.056Z,0
2018-08-27T04:22:31.581Z,0
2018-08-27T04:23:31.583Z,0
2018-08-27T04:24:31.317Z,0
2018-08-27T04:25:31.373Z,0
2018-08-27T04:26:31.617Z,0
2018-08-27T04:27:31.299Z,0
2018-08-27T04:28:31.605Z,0
2018-08-27T04:29:30.789Z,0
2018-08-27T04:30:31.031Z,0
2018-08-27T04:31:30.769Z,0
2018-08-27T04:32:31.019Z,0
2018-08-27T04:33:31.309Z,0
2018-08-27T04:34:31.779Z,0
2018-08-27T04:35:31.808Z,0
2018-08-27T04:36:31.545Z,0
2018-08-27T04:37:31.808Z,5
2018-08-27T04:38:31.263Z,5
2018-08-27T04:39:31.264Z,5
2018-08-27T04:40:31.300Z,5
2018-08-27T04:41:31.527Z,5
2018-08-27T04:42:32.064Z,5
2018-08-27T04:43:31.802Z,5
2018-08-27T04:44:31.250Z,5
2018-08-27T04:45:31.253Z,5
2018-08-27T04:46:31.792Z,10
2018-08-27T04:47:31.520Z,10
2018-08-27T04:48:31.761Z,10
2018-08-27T04:49:31.295Z,10
2018-08-27T04:50:31.277Z,10
2018-08-27T04:51:31.520Z,15
2018-08-27T04:52:31.503Z,15
2018-08-27T04:53:31.501Z,15
2018-08-27T04:54:30.973Z,15
2018-08-27T04:55:31.240Z,15
2018-08-27T04:56:31.231Z,20
2018-08-27T04:57:31.245Z,20
2018-08-27T04:58:30.960Z,20
2018-08-27T04:59:30.977Z,20
2018-08-27T05:00:31.253Z,25
2018-08-27T05:01:30.968Z,25
2018-08-27T05:02:31.221Z,25
2018-08-27T05:03:32.539Z,30
2018-08-27T05:04:31.471Z,30
2018-08-27T05:05:31.492Z,30
2018-08-27T05:06:31.212Z,30
2018-08-27T05:07:31.014Z,35
2018-08-27T05:08:30.683Z,35
2018-08-27T05:09:31.503Z,35
2018-08-27T05:10:31.294Z,40
2018-08-27T05:11:31.190Z,40
2018-08-27T05:12:31.782Z,40
2018-08-27T05:13:31.188Z,40
2018-08-27T05:14:31.225Z,45
2018-08-27T05:15:31.509Z,45
2018-08-27T05:16:31.464Z,45
2018-08-27T05:17:31.191Z,50
2018-08-27T05:18:31.985Z,50
2018-08-27T05:19:31.176Z,50
2018-08-27T05:20:31.741Z,50
2018-08-27T05:21:31.195Z,55
2018-08-27T05:22:31.684Z,55
2018-08-27T05:23:30.656Z,60
2018-08-27T05:24:31.463Z,60
2018-08-27T05:25:30.998Z,60
2018-08-27T05:26:31.468Z,65
2018-08-27T05:27:31.706Z,65
2018-08-27T05:28:31.690Z,65
2018-08-27T05:29:31.420Z,65
2018-08-27T05:30:31.585Z,65
2018-08-27T05:31:31.929Z,65
2018-08-27T05:32:30.655Z,65
2018-08-27T05:33:31.172Z,65
2018-08-27T05:34:31.146Z,65
2018-08-27T05:35:30.967Z,65
2018-08-27T05:36:30.632Z,70
2018-08-27T05:37:31.672Z,70
2018-08-27T05:38:31.032Z,70
2018-08-27T05:39:31.407Z,80
2018-08-27T05:40:30.878Z,90
2018-08-27T05:41:31.665Z,80
2018-08-27T05:42:31.679Z,100
2018-08-27T05:43:31.653Z,80
2018-08-27T05:44:31.516Z,100
2018-08-27T05:45:30.931Z,110
2018-08-27T05:46:31.391Z,115
2018-08-27T05:47:31.151Z,95
2018-08-27T05:48:31.655Z,75
2018-08-27T05:49:31.397Z,75
2018-08-27T05:50:30.884Z,75
2018-08-27T05:51:31.133Z,75
2018-08-27T05:52:31.524Z,80
2018-08-27T05:53:31.116Z,80
2018-08-27T05:54:31.134Z,80
2018-08-27T05:55:30.859Z,80
2018-08-27T05:56:30.858Z,80
2018-08-27T05:57:31.406Z,85
2018-08-27T05:58:32.719Z,85
2018-08-27T05:59:30.865Z,85
2018-08-27T06:00:31.133Z,85
2018-08-27T06:01:30.913Z,85
2018-08-27T06:02:31.113Z,85
2018-08-27T06:03:31.370Z,90
2018-08-27T06:04:31.179Z,90
2018-08-27T06:05:31.673Z,90
2018-08-27T06:06:31.373Z,95
2018-08-27T06:07:31.360Z,95
2018-08-27T06:08:31.380Z,95
2018-08-27T06:09:30.873Z,95
2018-08-27T06:10:31.218Z,95
2018-08-27T06:11:31.103Z,90
2018-08-27T06:12:31.363Z,90
2018-08-27T06:13:31.354Z,90
2018-08-27T06:14:31.117Z,95
2018-08-27T06:15:31.148Z,95
2018-08-27T06:16:31.789Z,95
2018-08-27T06:17:31.097Z,95
2018-08-27T06:18:31.350Z,100
2018-08-27T06:19:32.156Z,100
2018-08-27T06:20:31.223Z,105
2018-08-27T06:21:30.863Z,105
2018-08-27T06:22:31.883Z,115
2018-08-27T06:23:31.109Z,120
2018-08-27T06:24:30.836Z,125
2018-08-27T06:25:31.142Z,135
2018-08-27T06:26:30.589Z,190
2018-08-27T06:27:31.101Z,290
2018-08-27T06:28:31.354Z,275
2018-08-27T06:29:31.143Z,195
2018-08-27T06:30:31.446Z,195
2018-08-27T06:31:30.840Z,220
2018-08-27T06:32:31.317Z,225
2018-08-27T06:33:31.365Z,265
2018-08-27T06:34:31.394Z,265
2018-08-27T06:35:31.616Z,315
2018-08-27T06:36:31.108Z,335
2018-08-27T06:37:31.372Z,365
2018-08-27T06:38:30.835Z,350
2018-08-27T06:39:30.878Z,225
2018-08-27T06:40:31.385Z,175
2018-08-27T06:41:31.360Z,160
2018-08-27T06:42:31.133Z,155
2018-08-27T06:43:31.115Z,155
2018-08-27T06:44:31.604Z,160
2018-08-27T06:45:30.941Z,170
2018-08-27T06:46:31.501Z,180
2018-08-27T06:47:31.111Z,190
2018-08-27T06:48:31.384Z,195
2018-08-27T06:49:32.624Z,205
2018-08-27T06:50:30.919Z,220
2018-08-27T06:51:31.118Z,370
2018-08-27T06:52:31.133Z,295
2018-08-27T06:53:31.165Z,235
2018-08-27T06:54:30.890Z,215
2018-08-27T06:55:31.486Z,210
2018-08-27T06:56:31.418Z,205
2018-08-27T06:57:31.677Z,200
2018-08-27T06:58:31.431Z,200
2018-08-27T06:59:31.148Z,195
2018-08-27T07:00:31.020Z,195
2018-08-27T07:01:31.165Z,190
2018-08-27T07:02:32.015Z,185
2018-08-27T07:03:31.151Z,180
2018-08-27T07:04:31.465Z,180
2018-08-27T07:05:31.754Z,175
2018-08-27T07:06:31.447Z,175
2018-08-27T07:07:31.199Z,175
2018-08-27T07:08:30.926Z,180
2018-08-27T07:09:31.196Z,185
2018-08-27T07:10:31.186Z,185
2018-08-27T07:11:31.191Z,200
2018-08-27T07:12:31.459Z,200
2018-08-27T07:13:31.460Z,200
2018-08-27T07:14:31.457Z,205
2018-08-27T07:15:31.182Z,215
2018-08-27T07:16:31.195Z,220
2018-08-27T07:17:31.198Z,220
2018-08-27T07:18:30.943Z,220
2018-08-27T07:19:33.335Z,225
2018-08-27T07:20:31.612Z,235
2018-08-27T07:21:30.706Z,260
2018-08-27T07:22:30.705Z,250
2018-08-27T07:23:31.218Z,265
2018-08-27T07:24:31.519Z,260
2018-08-27T07:25:31.255Z,255
2018-08-27T07:26:31.230Z,260
2018-08-27T07:27:31.365Z,270
2018-08-27T07:28:30.979Z,295
2018-08-27T07:29:31.252Z,250
2018-08-27T07:30:31.576Z,230
2018-08-27T07:31:31.760Z,225
2018-08-27T07:32:31.223Z,225
2018-08-27T07:33:31.237Z,230
2018-08-27T07:34:31.241Z,230
2018-08-27T07:35:31.694Z,230
2018-08-27T07:36:31.698Z,230
2018-08-27T07:37:31.511Z,235
2018-08-27T07:38:31.309Z,240
2018-08-27T07:39:31.075Z,245
2018-08-27T07:40:31.273Z,245
2018-08-27T07:41:31.279Z,250
2018-08-27T07:42:31.265Z,255
2018-08-27T07:43:32.157Z,260
2018-08-27T07:44:31.523Z,260
2018-08-27T07:45:31.285Z,265
2018-08-27T07:46:31.550Z,265
2018-08-27T07:47:31.800Z,260
2018-08-27T07:48:31.332Z,260
2018-08-27T07:49:32.342Z,260
2018-08-27T07:50:31.091Z,265
2018-08-27T07:51:31.744Z,270
2018-08-27T07:52:31.290Z,275
2018-08-27T07:53:31.546Z,275
2018-08-27T07:54:31.306Z,275
2018-08-27T07:55:31.303Z,285
2018-08-27T07:56:31.543Z,290
2018-08-27T07:57:31.822Z,295
2018-08-27T07:58:31.617Z,305
2018-08-27T07:59:31.563Z,350
2018-08-27T08:00:31.674Z,305
2018-08-27T08:01:31.310Z,290
2018-08-27T08:02:31.336Z,285
2018-08-27T08:03:31.836Z,280
2018-08-27T08:04:31.650Z,265
2018-08-27T08:05:31.338Z,265
2018-08-27T08:06:31.371Z,265
2018-08-27T08:07:31.247Z,265
2018-08-27T08:08:31.324Z,255
2018-08-27T08:09:31.075Z,250
2018-08-27T08:10:31.139Z,245
2018-08-27T08:11:31.667Z,240
2018-08-27T08:12:31.605Z,230
2018-08-27T08:13:31.413Z,230
2018-08-27T08:14:31.349Z,225
2018-08-27T08:15:31.494Z,220
2018-08-27T08:16:31.646Z,220
2018-08-27T08:17:31.613Z,220
2018-08-27T08:18:31.880Z,220
2018-08-27T08:19:31.645Z,215
2018-08-27T08:20:31.398Z,215
2018-08-27T08:21:31.390Z,210
2018-08-27T08:22:31.405Z,215
2018-08-27T08:23:31.666Z,220
2018-08-27T08:24:31.400Z,230
2018-08-27T08:25:31.939Z,235
2018-08-27T08:26:31.914Z,240
2018-08-27T08:27:31.664Z,245
2018-08-27T08:28:31.668Z,245
2018-08-27T08:29:31.941Z,245
2018-08-27T08:30:31.162Z,240
2018-08-27T08:31:31.671Z,230
2018-08-27T08:32:30.900Z,220
2018-08-27T08:33:31.290Z,210
2018-08-27T08:34:31.199Z,205
2018-08-27T08:35:32.011Z,205
2018-08-27T08:36:31.690Z,210
2018-08-27T08:37:31.707Z,210
2018-08-27T08:38:31.711Z,210
2018-08-27T08:39:31.947Z,215
2018-08-27T08:40:31.488Z,230
2018-08-27T08:41:31.708Z,230
2018-08-27T08:42:31.705Z,235
2018-08-27T08:43:31.718Z,235
2018-08-27T08:44:31.706Z,235
2018-08-27T08:45:31.481Z,235
2018-08-27T08:46:31.964Z,235
2018-08-27T08:47:31.517Z,240
2018-08-27T08:48:31.521Z,240
2018-08-27T08:49:31.462Z,245
2018-08-27T08:50:31.812Z,245
2018-08-27T08:51:32.056Z,245
2018-08-27T08:52:31.241Z,250
2018-08-27T08:53:31.936Z,250
2018-08-27T08:54:31.229Z,260
2018-08-27T08:55:32.107Z,260
2018-08-27T08:56:31.748Z,265
2018-08-27T08:57:32.012Z,270
2018-08-27T08:58:31.244Z,275
2018-08-27T08:59:32.078Z,280
2018-08-27T09:00:31.561Z,285
2018-08-27T09:01:32.729Z,280
2018-08-27T09:02:31.517Z,280
2018-08-27T09:03:32.035Z,280
2018-08-27T09:04:31.803Z,275
2018-08-27T09:05:31.542Z,275
2018-08-27T09:06:32.083Z,270
2018-08-27T09:07:31.782Z,275
2018-08-27T09:08:31.417Z,275
2018-08-27T09:09:31.525Z,275
2018-08-27T09:10:31.284Z,270
2018-08-27T09:11:31.811Z,265
2018-08-27T09:12:31.563Z,270
2018-08-27T09:13:31.558Z,270
2018-08-27T09:14:31.142Z,270
2018-08-27T09:15:31.905Z,265
2018-08-27T09:16:31.882Z,265
2018-08-27T09:17:32.013Z,265
2018-08-27T09:18:32.190Z,265
2018-08-27T09:19:31.829Z,265
2018-08-27T09:20:31.685Z,265
2018-08-27T09:21:31.864Z,265
2018-08-27T09:22:31.927Z,260
2018-08-27T09:23:32.112Z,260
2018-08-27T09:24:32.096Z,255
2018-08-27T09:25:31.912Z,250
2018-08-27T09:26:31.906Z,240
2018-08-27T09:27:31.836Z,240
2018-08-27T09:28:31.842Z,235
2018-08-27T09:29:31.859Z,235
2018-08-27T09:30:32.196Z,240
2018-08-27T09:31:32.316Z,245
2018-08-27T09:32:32.126Z,240
2018-08-27T09:33:31.873Z,245
2018-08-27T09:34:31.619Z,250
2018-08-27T09:35:31.945Z,250
2018-08-27T09:36:32.135Z,250
2018-08-27T09:37:32.112Z,260
2018-08-27T09:38:31.361Z,265
2018-08-27T09:39:31.370Z,270
2018-08-27T09:40:31.892Z,275
2018-08-27T09:41:32.523Z,275
2018-08-27T09:42:31.641Z,270
2018-08-27T09:43:31.896Z,260
2018-08-27T09:44:31.703Z,245
2018-08-27T09:45:32.175Z,235
2018-08-27T09:46:31.656Z,225
2018-08-27T09:47:31.916Z,220
2018-08-27T09:48:31.922Z,220
2018-08-27T09:49:31.674Z,220
2018-08-27T09:50:31.931Z,230
2018-08-27T09:51:31.669Z,245
2018-08-27T09:52:31.664Z,255
2018-08-27T09:53:31.934Z,260
2018-08-27T09:54:31.950Z,260
2018-08-27T09:55:31.770Z,260
2018-08-27T09:56:31.690Z,260
2018-08-27T09:57:31.685Z,255
2018-08-27T09:58:32.270Z,255
2018-08-27T09:59:31.695Z,250
2018-08-27T10:00:31.952Z,240
2018-08-27T10:01:31.962Z,240
2018-08-27T10:02:31.943Z,235
2018-08-27T10:03:31.702Z,235
2018-08-27T10:04:31.963Z,230
2018-08-27T10:05:31.497Z,230
2018-08-27T10:06:31.980Z,235
2018-08-27T10:07:31.707Z,235
2018-08-27T10:08:31.205Z,240
2018-08-27T10:09:31.753Z,240
2018-08-27T10:10:32.060Z,240
2018-08-27T10:11:31.722Z,240
2018-08-27T10:12:31.465Z,240
2018-08-27T10:13:31.485Z,235
2018-08-27T10:14:31.994Z,235
2018-08-27T10:15:31.756Z,235
2018-08-27T10:16:32.276Z,230
2018-08-27T10:17:31.745Z,230
2018-08-27T10:18:32.002Z,230
2018-08-27T10:19:31.751Z,235
2018-08-27T10:20:31.496Z,235
2018-08-27T10:21:32.277Z,240
2018-08-27T10:22:31.849Z,240
2018-08-27T10:23:32.017Z,245
2018-08-27T10:24:31.779Z,255
2018-08-27T10:25:32.321Z,265
2018-08-27T10:26:32.371Z,275
2018-08-27T10:27:32.036Z,285
2018-08-27T10:28:31.886Z,295
2018-08-27T10:29:31.782Z,305
2018-08-27T10:30:31.796Z,310
2018-08-27T10:31:32.059Z,315
2018-08-27T10:32:31.795Z,310
2018-08-27T10:33:31.804Z,310
2018-08-27T10:34:31.805Z,305
2018-08-27T10:35:32.257Z,295
2018-08-27T10:36:32.132Z,290
2018-08-27T10:37:31.555Z,290
2018-08-27T10:38:31.877Z,295
2018-08-27T10:39:31.872Z,305
2018-08-27T10:40:32.146Z,305
2018-08-27T10:41:32.107Z,300
2018-08-27T10:42:32.128Z,295
2018-08-27T10:43:31.847Z,295
2018-08-27T10:44:32.138Z,295
2018-08-27T10:45:31.874Z,300
2018-08-27T10:46:31.866Z,305
2018-08-27T10:47:32.119Z,310
2018-08-27T10:48:31.583Z,310
2018-08-27T10:49:31.597Z,315
2018-08-27T10:50:33.527Z,315
2018-08-27T10:51:32.142Z,320
2018-08-27T10:52:32.166Z,325
2018-08-27T10:53:32.404Z,335
2018-08-27T10:54:32.211Z,340
2018-08-27T10:55:32.249Z,345
2018-08-27T10:56:32.419Z,345
2018-08-27T10:57:31.886Z,345
2018-08-27T10:58:31.906Z,345
2018-08-27T10:59:31.902Z,345
2018-08-27T11:00:32.510Z,345
2018-08-27T11:01:31.923Z,345
2018-08-27T11:02:32.195Z,350
2018-08-27T11:03:32.182Z,340
2018-08-27T11:04:31.966Z,350
2018-08-27T11:05:32.232Z,345
2018-08-27T11:06:32.186Z,350
2018-08-27T11:07:31.948Z,345
2018-08-27T11:08:31.945Z,340
2018-08-27T11:09:31.950Z,320
2018-08-27T11:10:32.336Z,310
2018-08-27T11:11:31.982Z,295
2018-08-27T11:12:32.247Z,290
2018-08-27T11:13:32.226Z,285
2018-08-27T11:14:32.516Z,285
2018-08-27T11:15:31.725Z,290
2018-08-27T11:16:32.245Z,295
2018-08-27T11:17:31.996Z,295
2018-08-27T11:18:31.726Z,300
2018-08-27T11:19:32.625Z,315
2018-08-27T11:20:33.921Z,315
2018-08-27T11:21:31.734Z,330
2018-08-27T11:22:32.261Z,335
2018-08-27T11:23:31.995Z,320
2018-08-27T11:24:32.522Z,305
2018-08-27T11:25:32.337Z,305
2018-08-27T11:26:32.425Z,300
2018-08-27T11:27:32.028Z,295
2018-08-27T11:28:32.551Z,305
2018-08-27T11:29:32.068Z,310
2018-08-27T11:30:32.186Z,315
2018-08-27T11:31:31.801Z,320
2018-08-27T11:32:32.082Z,345
2018-08-27T11:33:31.787Z,365
2018-08-27T11:34:32.039Z,390
2018-08-27T11:35:31.807Z,395
2018-08-27T11:36:32.069Z,370
2018-08-27T11:37:32.579Z,355
2018-08-27T11:38:32.325Z,335
2018-08-27T11:39:32.381Z,325
2018-08-27T11:40:32.365Z,340
2018-08-27T11:41:32.095Z,350
2018-08-27T11:42:32.607Z,355
2018-08-27T11:43:33.200Z,355
2018-08-27T11:44:32.140Z,360
2018-08-27T11:45:32.639Z,360
2018-08-27T11:46:32.130Z,350
2018-08-27T11:47:32.142Z,350
2018-08-27T11:48:32.371Z,355
2018-08-27T11:49:32.394Z,365
2018-08-27T11:50:32.186Z,370
2018-08-27T11:51:34.030Z,360
2018-08-27T11:52:32.146Z,340
2018-08-27T11:53:31.910Z,325
2018-08-27T11:54:32.191Z,320
2018-08-27T11:55:31.957Z,325
2018-08-27T11:56:32.161Z,330
2018-08-27T11:57:31.646Z,325
2018-08-27T11:58:32.975Z,325
2018-08-27T11:59:32.245Z,320
2018-08-27T12:00:31.998Z,330
2018-08-27T12:01:31.964Z,335
2018-08-27T12:02:32.197Z,335
2018-08-27T12:03:32.449Z,330
2018-08-27T12:04:32.725Z,335
2018-08-27T12:05:32.754Z,345
2018-08-27T12:06:32.188Z,345
2018-08-27T12:07:31.951Z,330
2018-08-27T12:08:32.493Z,300
2018-08-27T12:09:32.249Z,270
2018-08-27T12:10:32.075Z,250
2018-08-27T12:11:32.483Z,230
2018-08-27T12:12:32.225Z,235
2018-08-27T12:13:32.231Z,235
2018-08-27T12:14:32.504Z,230
2018-08-27T12:15:32.498Z,230
2018-08-27T12:16:32.753Z,230
2018-08-27T12:17:32.237Z,230
2018-08-27T12:18:32.035Z,235
2018-08-27T12:19:32.279Z,245
2018-08-27T12:20:32.570Z,245
2018-08-27T12:21:34.115Z,245
2018-08-27T12:22:31.772Z,250
2018-08-27T12:23:32.571Z,260
2018-08-27T12:24:32.565Z,285
2018-08-27T12:25:32.592Z,295
2018-08-27T12:26:32.303Z,300
2018-08-27T12:27:32.081Z,320
2018-08-27T12:28:32.545Z,335
2018-08-27T12:29:32.295Z,340
2018-08-27T12:30:32.594Z,340
2018-08-27T12:31:32.329Z,330
2018-08-27T12:32:32.564Z,330
2018-08-27T12:33:32.578Z,335
2018-08-27T12:34:32.329Z,345
2018-08-27T12:35:32.329Z,355
2018-08-27T12:36:32.579Z,365
2018-08-27T12:37:32.326Z,370
2018-08-27T12:38:32.333Z,355
2018-08-27T12:39:32.334Z,335
2018-08-27T12:40:33.222Z,315
2018-08-27T12:41:32.175Z,305
2018-08-27T12:42:32.360Z,310
2018-08-27T12:43:33.065Z,315
2018-08-27T12:44:32.117Z,325
2018-08-27T12:45:32.134Z,340
2018-08-27T12:46:32.658Z,345
2018-08-27T12:47:32.633Z,330
2018-08-27T12:48:32.907Z,330
2018-08-27T12:49:32.130Z,320
2018-08-27T12:50:32.388Z,310
2018-08-27T12:51:33.325Z,300
2018-08-27T12:52:32.657Z,290
2018-08-27T12:53:32.677Z,290
2018-08-27T12:54:32.149Z,285
2018-08-27T12:55:32.435Z,280
2018-08-27T12:56:32.700Z,280
2018-08-27T12:57:32.447Z,275
2018-08-27T12:58:32.347Z,280
2018-08-27T12:59:32.708Z,295
2018-08-27T13:00:32.470Z,300
2018-08-27T13:01:32.458Z,300
2018-08-27T13:02:32.173Z,300
2018-08-27T13:03:32.456Z,300
2018-08-27T13:04:32.457Z,310
2018-08-27T13:05:33.058Z,315
2018-08-27T13:06:32.733Z,315
2018-08-27T13:07:32.554Z,305
2018-08-27T13:08:32.731Z,295
2018-08-27T13:09:32.733Z,290
2018-08-27T13:10:32.979Z,290
2018-08-27T13:11:33.191Z,290
2018-08-27T13:12:33.187Z,290
2018-08-27T13:13:32.552Z,290
2018-08-27T13:14:32.500Z,290
2018-08-27T13:15:33.062Z,280
2018-08-27T13:16:32.777Z,280
2018-08-27T13:17:33.031Z,275
2018-08-27T13:18:32.256Z,265
2018-08-27T13:19:32.300Z,260
2018-08-27T13:20:32.520Z,260
2018-08-27T13:21:32.529Z,265
2018-08-27T13:22:32.526Z,275
2018-08-27T13:23:32.843Z,280
2018-08-27T13:24:32.819Z,295
2018-08-27T13:25:32.567Z,305
2018-08-27T13:26:32.301Z,305
2018-08-27T13:27:32.537Z,300
2018-08-27T13:28:32.551Z,300
2018-08-27T13:29:32.554Z,295
2018-08-27T13:30:33.199Z,300
2018-08-27T13:31:32.981Z,295
2018-08-27T13:32:32.581Z,300
2018-08-27T13:33:32.847Z,295
2018-08-27T13:34:32.312Z,290
2018-08-27T13:35:32.974Z,285
2018-08-27T13:36:32.329Z,290
2018-08-27T13:37:32.326Z,295
2018-08-27T13:38:32.847Z,300
2018-08-27T13:39:32.599Z,300
2018-08-27T13:40:32.695Z,300
2018-08-27T13:41:32.884Z,300
2018-08-27T13:42:32.626Z,305
2018-08-27T13:43:32.377Z,310
2018-08-27T13:44:32.613Z,310
2018-08-27T13:45:32.976Z,310
2018-08-27T13:46:32.640Z,315
2018-08-27T13:47:32.406Z,310
2018-08-27T13:48:32.979Z,310
2018-08-27T13:49:32.639Z,300
2018-08-27T13:50:32.383Z,295
2018-08-27T13:51:33.462Z,295
2018-08-27T13:52:32.904Z,295
2018-08-27T13:53:32.687Z,295
2018-08-27T13:54:32.667Z,295
2018-08-27T13:55:32.416Z,295
2018-08-27T13:56:33.268Z,295
2018-08-27T13:57:32.441Z,295
2018-08-27T13:58:32.931Z,300
2018-08-27T13:59:32.458Z,305
2018-08-27T14:00:32.917Z,300
2018-08-27T14:01:32.721Z,310
2018-08-27T14:02:32.983Z,310
2018-08-27T14:03:32.454Z,315
2018-08-27T14:04:32.991Z,305
2018-08-27T14:05:33.431Z,295
2018-08-27T14:06:33.838Z,290
2018-08-27T14:07:32.797Z,290
2018-08-27T14:08:32.466Z,295